Time;durP1;ratioP1;P1;durP2;ratioP2;P2;SDS_P1;SDS_P2;PMS_P1;PMS_P2;Temp;Humidity;BMP_temperature;BMP_pressure;BME280_temperature;BME280_humidity;BME280_pressure;Samples;Min_cycle;Max_cycle;Signal;HPM_P1;HPM_P2
2021/10/26 00:00:20;;;;;;;23.35;11.85;;;;;;;5.54;93.43;98345.25;4969191;28;20817;-62
2021/10/26 00:02:46;;;;;;;24.83;11.98;;;;;;;5.55;93.02;98345.25;4971463;28;20041;-64
2021/10/26 00:05:11;;;;;;;25.10;12.38;;;;;;;5.53;91.83;98338.38;4969060;28;20121;-63
2021/10/26 00:07:37;;;;;;;23.73;12.40;;;;;;;5.43;92.73;98348.00;4966834;28;20077;-62
2021/10/26 00:10:08;;;;;;;26.55;12.18;;;;;;;5.51;91.64;98351.31;4969157;28;20030;-63
2021/10/26 00:12:34;;;;;;;24.42;12.88;;;;;;;5.10;94.98;98347.59;4968178;28;20034;-62
2021/10/26 00:14:59;;;;;;;28.27;13.00;;;;;;;5.33;94.16;98341.25;4968744;28;20023;-63
2021/10/26 00:17:26;;;;;;;28.77;13.18;;;;;;;5.58;93.54;98342.59;4969076;28;20038;-65
2021/10/26 00:19:51;;;;;;;22.55;12.48;;;;;;;5.52;93.89;98347.88;4967868;28;20059;-65
2021/10/26 00:22:17;;;;;;;25.85;12.68;;;;;;;5.59;91.50;98339.13;4969425;28;20699;-62
2021/10/26 00:24:43;;;;;;;21.55;11.75;;;;;;;5.35;91.22;98339.50;4968637;28;20044;-63
2021/10/26 00:27:09;;;;;;;21.83;11.77;;;;;;;5.35;92.92;98336.94;4967306;28;20833;-61
2021/10/26 00:29:34;;;;;;;19.45;10.73;;;;;;;5.21;92.78;98342.28;4968409;28;20140;-61
2021/10/26 00:31:59;;;;;;;21.27;11.35;;;;;;;5.34;91.24;98343.81;4969374;28;20039;-62
2021/10/26 00:34:25;;;;;;;19.13;10.18;;;;;;;5.35;91.72;98355.03;4968396;28;20027;-60
2021/10/26 00:36:50;;;;;;;22.63;11.63;;;;;;;5.36;91.72;98361.91;4968095;28;20039;-61
2021/10/26 00:39:15;;;;;;;20.08;10.63;;;;;;;5.12;92.10;98361.34;4974507;28;20037;-63
2021/10/26 00:41:41;;;;;;;21.15;11.55;;;;;;;5.10;92.81;98357.09;4968232;28;20047;-64
2021/10/26 00:44:06;;;;;;;16.88;10.55;;;;;;;5.05;92.59;98361.47;4967218;28;20079;-60
2021/10/26 00:46:33;;;;;;;26.25;12.52;;;;;;;5.18;91.72;98358.72;4966213;28;20488;-60
2021/10/26 00:49:00;;;;;;;19.27;10.30;;;;;;;4.96;91.94;98352.97;4970965;28;20034;-62
2021/10/26 00:51:27;;;;;;;25.35;11.80;;;;;;;4.61;96.25;98361.13;4968426;28;20104;-60
2021/10/26 00:53:52;;;;;;;20.10;11.52;;;;;;;4.55;96.97;98362.03;4967201;28;20019;-61
2021/10/26 00:56:19;;;;;;;25.08;11.60;;;;;;;4.74;95.10;98362.72;4968442;28;20050;-61
2021/10/26 00:58:44;;;;;;;22.63;11.65;;;;;;;4.86;91.95;98355.69;4969636;28;20682;-61
2021/10/26 01:01:10;;;;;;;19.50;11.45;;;;;;;4.68;94.15;98349.84;4968050;28;20043;-60
2021/10/26 01:03:35;;;;;;;20.88;12.00;;;;;;;5.04;93.40;98352.84;4970071;28;20084;-62
2021/10/26 01:06:00;;;;;;;20.25;11.88;;;;;;;4.75;93.94;98356.66;4968510;28;20047;-63
2021/10/26 01:08:27;;;;;;;19.77;11.25;;;;;;;4.82;92.46;98353.13;4969456;28;20036;-62
2021/10/26 01:10:52;;;;;;;17.00;10.35;;;;;;;4.76;91.84;98350.63;4967973;28;20618;-62
2021/10/26 01:13:22;;;;;;;20.90;11.27;;;;;;;4.78;91.84;98351.47;4950679;28;20126;-62
2021/10/26 01:15:47;;;;;;;20.40;10.07;;;;;;;4.34;95.27;98357.97;4969448;28;20112;-61
2021/10/26 01:18:14;;;;;;;19.75;10.68;;;;;;;4.47;95.39;98368.16;4966072;28;20033;-62
2021/10/26 01:20:39;;;;;;;20.75;10.52;;;;;;;4.76;92.09;98360.09;4966013;28;20038;-60
2021/10/26 01:23:04;;;;;;;20.90;10.23;;;;;;;4.29;94.94;98364.91;4967126;28;20023;-61
2021/10/26 01:25:30;;;;;;;18.00;10.30;;;;;;;4.68;93.28;98362.75;4966945;28;20027;-63
2021/10/26 01:27:55;;;;;;;19.92;10.93;;;;;;;4.56;94.29;98365.50;4967418;28;20540;-60
2021/10/26 01:30:26;;;;;;;21.27;11.35;;;;;;;4.46;94.04;98367.31;4970646;28;20018;-61
2021/10/26 01:32:53;;;;;;;24.05;11.65;;;;;;;4.49;92.64;98369.88;4968501;28;20025;-60
2021/10/26 01:35:18;;;;;;;21.20;11.60;;;;;;;4.65;92.01;98365.41;4968395;28;20065;-62
2021/10/26 01:37:43;;;;;;;19.33;11.50;;;;;;;4.18;96.36;98379.66;4966665;28;20027;-62
2021/10/26 01:40:09;;;;;;;22.25;11.25;;;;;;;4.14;96.57;98380.56;4966451;28;20030;-60
2021/10/26 01:42:35;;;;;;;23.30;11.15;;;;;;;4.52;94.40;98374.13;4967536;28;20046;-60
2021/10/26 01:45:00;;;;;;;21.23;10.90;;;;;;;4.14;95.25;98368.50;4969758;28;20033;-62
2021/10/26 01:47:26;;;;;;;18.67;10.57;;;;;;;4.46;93.00;98376.78;4972829;28;20038;-65
2021/10/26 01:49:51;;;;;;;20.20;11.02;;;;;;;4.23;94.59;98372.72;4971242;28;20069;-62
2021/10/26 01:52:16;;;;;;;17.75;10.40;;;;;;;4.10;94.55;98368.53;4972355;28;20133;-59
2021/10/26 01:54:42;;;;;;;18.55;10.88;;;;;;;4.34;92.41;98363.16;4972703;28;20111;-60
2021/10/26 01:57:08;;;;;;;19.30;10.50;;;;;;;3.80;95.27;98360.19;4970203;28;20043;-60
2021/10/26 01:59:34;;;;;;;20.00;10.13;;;;;;;4.30;91.26;98366.63;4972228;28;20072;-59
2021/10/26 02:02:00;;;;;;;20.20;10.48;;;;;;;3.77;94.58;98358.50;4969598;28;20701;-61
2021/10/26 02:04:26;;;;;;;23.45;11.05;;;;;;;4.15;93.98;98361.59;4971569;28;20062;-64
2021/10/26 02:06:53;;;;;;;17.63;10.27;;;;;;;4.17;92.49;98365.03;4971598;28;20134;-64
2021/10/26 02:09:19;;;;;;;21.83;10.80;;;;;;;4.25;92.32;98370.97;4968270;28;20798;-65
2021/10/26 02:11:45;;;;;;;23.55;10.90;;;;;;;4.21;92.26;98371.88;4970016;28;20056;-63
2021/10/26 02:14:10;;;;;;;17.80;10.35;;;;;;;4.18;92.03;98372.75;4971100;28;20094;-62
2021/10/26 02:16:35;;;;;;;16.35;9.27;;;;;;;4.16;91.68;98379.66;4969233;28;20047;-63
2021/10/26 02:19:01;;;;;;;20.85;10.65;;;;;;;4.14;91.61;98383.13;4972332;28;20551;-63
2021/10/26 02:21:26;;;;;;;19.55;11.00;;;;;;;3.78;93.88;98379.97;4970943;28;20049;-60
2021/10/26 02:23:51;;;;;;;20.38;10.70;;;;;;;3.91;93.93;98385.91;4974505;28;20030;-60
2021/10/26 02:26:17;;;;;;;19.25;10.18;;;;;;;4.11;93.18;98388.31;4972540;28;20047;-60
2021/10/26 02:28:43;;;;;;;19.35;10.40;;;;;;;4.05;91.83;98389.22;4971731;28;20126;-63
2021/10/26 02:31:09;;;;;;;16.65;10.13;;;;;;;3.67;95.35;98391.22;4971875;28;20042;-63
2021/10/26 02:33:34;;;;;;;18.05;9.88;;;;;;;3.99;94.04;98386.72;4969541;28;20188;-61
2021/10/26 02:35:59;;;;;;;20.92;10.18;;;;;;;3.62;94.48;98393.00;4970636;28;20046;-63
2021/10/26 02:38:25;;;;;;;18.27;10.40;;;;;;;3.94;92.86;98397.06;4970078;28;20039;-63
2021/10/26 02:40:50;;;;;;;16.75;10.00;;;;;;;4.10;90.65;98390.06;4971180;28;20050;-63
2021/10/26 02:43:16;;;;;;;20.27;11.10;;;;;;;4.01;91.80;98392.72;4972015;28;20022;-63
2021/10/26 02:45:41;;;;;;;20.65;10.60;;;;;;;3.88;92.79;98389.38;4971294;28;20030;-63
2021/10/26 02:48:07;;;;;;;18.35;10.00;;;;;;;3.59;94.49;98385.28;4969706;28;20054;-64
2021/10/26 02:50:32;;;;;;;16.20;10.05;;;;;;;3.60;96.30;98386.13;4968981;28;20062;-62
2021/10/26 02:52:58;;;;;;;22.50;10.20;;;;;;;4.05;93.17;98397.81;4969479;28;20041;-64
2021/10/26 02:55:23;;;;;;;19.85;10.38;;;;;;;3.90;92.29;98395.38;4971024;28;20125;-64
2021/10/26 02:57:48;;;;;;;17.50;10.27;;;;;;;3.37;95.89;98389.72;4971537;28;20119;-61
2021/10/26 03:00:14;;;;;;;22.02;11.40;;;;;;;3.75;94.77;98395.47;4970338;28;20030;-62
2021/10/26 03:02:40;;;;;;;21.70;10.55;;;;;;;3.57;94.91;98393.91;4970736;28;20126;-64
2021/10/26 03:05:07;;;;;;;19.52;11.13;;;;;;;3.72;94.19;98398.09;4968386;28;20027;-62
2021/10/26 03:07:39;;;;;;;25.30;11.95;;;;;;;3.86;94.11;98393.69;4972126;28;20764;-63
2021/10/26 03:10:05;;;;;;;22.52;12.05;;;;;;;3.86;93.65;98401.44;4969628;28;20027;-62
2021/10/26 03:12:30;;;;;;;22.80;11.48;;;;;;;3.63;96.29;98399.84;4969245;28;20037;-64
2021/10/26 03:14:56;;;;;;;24.95;11.68;;;;;;;3.90;94.41;98397.97;4969122;28;20026;-60
2021/10/26 03:17:21;;;;;;;20.70;11.65;;;;;;;3.79;94.09;98399.78;4970054;28;20073;-60
2021/10/26 03:19:47;;;;;;;21.35;11.60;;;;;;;3.90;93.88;98397.97;4969037;28;20023;-61
2021/10/26 03:22:12;;;;;;;26.63;12.27;;;;;;;3.99;92.34;98408.22;4969429;28;20138;-63
2021/10/26 03:24:38;;;;;;;27.67;12.18;;;;;;;4.03;92.26;98409.88;4972149;28;20562;-62
2021/10/26 03:27:03;;;;;;;22.65;11.48;;;;;;;3.69;94.57;98406.69;4971959;28;20121;-60
2021/10/26 03:29:29;;;;;;;29.48;12.52;;;;;;;3.82;95.82;98404.88;4970482;28;20617;-63
2021/10/26 03:31:55;;;;;;;28.75;12.93;;;;;;;3.99;93.39;98405.63;4969103;28;20133;-63
2021/10/26 03:34:21;;;;;;;24.00;10.55;;;;;;;4.03;92.66;98415.06;4969449;28;20027;-63
2021/10/26 03:36:46;;;;;;;21.08;11.63;;;;;;;4.14;94.19;98414.13;4971137;28;20704;-61
2021/10/26 03:39:12;;;;;;;21.13;10.38;;;;;;;4.26;93.40;98434.66;4969407;28;20130;-63
2021/10/26 03:41:37;;;;;;;20.73;11.88;;;;;;;4.24;92.25;98434.66;4968640;28;20165;-62
2021/10/26 03:44:03;;;;;;;21.48;11.65;;;;;;;3.79;95.20;98441.06;4970717;28;20026;-62
2021/10/26 03:46:29;;;;;;;23.15;11.35;;;;;;;4.01;94.37;98441.75;4971083;28;20054;-61
2021/10/26 03:48:54;;;;;;;24.13;11.45;;;;;;;3.81;94.78;98440.16;4969435;28;20109;-62
2021/10/26 03:51:20;;;;;;;22.70;11.43;;;;;;;3.96;94.18;98433.19;4968917;28;20038;-62
2021/10/26 03:53:45;;;;;;;21.63;11.20;;;;;;;3.78;93.85;98440.19;4970059;28;20137;-61
2021/10/26 03:56:10;;;;;;;28.30;11.20;;;;;;;3.79;95.80;98434.16;4971391;28;20073;-63
2021/10/26 03:58:40;;;;;;;18.75;11.00;;;;;;;3.90;95.07;98439.25;4969814;28;20037;-61
2021/10/26 04:01:05;;;;;;;18.70;10.10;;;;;;;3.50;97.03;98439.50;4970252;28;20074;-63
2021/10/26 04:03:30;;;;;;;15.18;9.50;;;;;;;3.59;96.45;98436.88;4967936;28;20483;-63
2021/10/26 04:06:04;;;;;;;21.27;10.82;;;;;;;4.03;94.04;98445.19;4966721;28;20062;-61
2021/10/26 04:11:13;;;;;;;20.65;11.02;;;;;;;3.76;96.91;98438.50;4968364;28;20852;-62
2021/10/26 04:13:39;;;;;;;21.63;10.93;;;;;;;4.14;94.43;98437.34;4969604;28;20480;-62
2021/10/26 04:16:04;;;;;;;18.00;10.68;;;;;;;3.87;95.34;98439.25;4969832;28;20031;-63
2021/10/26 04:18:30;;;;;;;27.23;12.45;;;;;;;4.15;96.06;98445.06;4967933;28;20049;-60
2021/10/26 04:20:55;;;;;;;25.20;11.52;;;;;;;4.30;94.50;98453.56;4969962;28;20038;-61
2021/10/26 04:23:22;;;;;;;21.45;11.20;;;;;;;4.32;94.10;98447.53;4969963;28;20408;-63
2021/10/26 04:25:48;;;;;;;21.02;11.27;;;;;;;4.45;94.70;98443.13;4969232;28;20049;-61
2021/10/26 04:28:13;;;;;;;19.98;11.15;;;;;;;4.64;94.34;98451.53;4966516;28;20026;-64
2021/10/26 04:30:39;;;;;;;19.42;10.82;;;;;;;4.75;92.88;98449.69;4967217;28;20041;-62
2021/10/26 04:33:06;;;;;;;18.02;10.63;;;;;;;4.38;94.37;98447.47;4968204;28;20031;-62
2021/10/26 04:35:32;;;;;;;17.35;10.10;;;;;;;4.25;96.69;98440.69;4968132;28;20065;-62
2021/10/26 04:37:58;;;;;;;17.02;10.07;;;;;;;4.31;96.60;98440.63;4966887;28;20027;-64
2021/10/26 04:40:24;;;;;;;21.95;12.07;;;;;;;5.06;94.13;98449.34;4970452;28;20036;-60
2021/10/26 04:42:49;;;;;;;20.05;11.05;;;;;;;4.96;92.85;98445.16;4968611;28;20022;-62
2021/10/26 04:45:15;;;;;;;18.77;10.95;;;;;;;4.51;96.16;98460.28;4968855;28;20027;-63
2021/10/26 04:47:44;;;;;;;20.27;11.73;;;;;;;5.02;93.86;98455.44;4970942;28;20452;-64
2021/10/26 04:50:11;;;;;;;18.08;10.18;;;;;;;4.47;94.84;98450.81;4965323;28;20034;-62
2021/10/26 04:52:37;;;;;;;20.17;10.45;;;;;;;4.71;94.99;98454.91;4971400;28;20034;-62
2021/10/26 04:55:02;;;;;;;20.98;11.50;;;;;;;4.72;95.24;98452.28;4969758;28;20031;-62
2021/10/26 04:57:28;;;;;;;18.70;11.00;;;;;;;4.62;96.53;98453.28;4969821;28;20569;-63
2021/10/26 04:59:55;;;;;;;20.30;11.18;;;;;;;4.62;95.42;98450.69;4968261;28;20049;-62
2021/10/26 05:02:21;;;;;;;21.08;11.05;;;;;;;4.60;97.71;98458.44;4966902;28;20055;-62
2021/10/26 05:04:46;;;;;;;26.45;12.40;;;;;;;4.79;96.62;98448.78;4973548;28;20037;-63
2021/10/26 05:07:12;;;;;;;25.05;12.20;;;;;;;5.24;94.64;98455.16;4970297;28;20041;-60
2021/10/26 05:09:37;;;;;;;21.60;11.52;;;;;;;5.11;94.91;98460.50;4973626;28;20039;-61
2021/10/26 05:12:03;;;;;;;21.95;12.15;;;;;;;4.97;95.90;98464.97;4972465;28;20062;-64
2021/10/26 05:14:29;;;;;;;22.13;12.13;;;;;;;5.09;97.05;98471.72;4973326;28;20065;-63
2021/10/26 05:16:56;;;;;;;20.48;11.07;;;;;;;5.14;97.03;98468.22;4972921;28;20412;-65
2021/10/26 05:19:22;;;;;;;21.23;11.15;;;;;;;5.40;95.27;98473.09;4974373;28;20705;-61
2021/10/26 05:21:48;;;;;;;20.77;11.40;;;;;;;5.19;95.35;98483.69;4970060;28;20046;-63
2021/10/26 05:24:14;;;;;;;23.52;11.30;;;;;;;5.13;97.17;98479.44;4974015;28;20440;-63
2021/10/26 05:26:39;;;;;;;21.27;11.55;;;;;;;5.38;96.18;98479.13;4969822;28;20053;-63
2021/10/26 05:29:09;;;;;;;21.88;11.95;;;;;;;5.14;97.06;98475.97;4971024;28;20043;-64
2021/10/26 05:31:34;;;;;;;20.50;11.88;;;;;;;5.00;98.93;98472.72;4971861;28;20114;-61
2021/10/26 05:34:00;;;;;;;21.50;11.50;;;;;;;5.28;95.98;98472.38;4972739;28;20023;-63
2021/10/26 05:36:25;;;;;;;10.75;5.32;;;;;;;5.94;96.14;98469.75;4971144;28;20064;-61
2021/10/26 05:38:51;;;;;;;21.23;11.38;;;;;;;5.92;94.58;98471.53;4971303;28;20065;-63
2021/10/26 05:41:17;;;;;;;17.17;9.75;;;;;;;5.68;97.72;98474.44;4969546;28;20043;-60
2021/10/26 05:43:42;;;;;;;15.05;8.35;;;;;;;5.95;96.23;98471.47;4969739;28;20064;-62
2021/10/26 05:46:08;;;;;;;16.20;8.10;;;;;;;6.07;95.30;98473.06;4968198;28;20073;-64
2021/10/26 05:48:33;;;;;;;17.15;8.95;;;;;;;6.16;93.53;98479.84;4970586;28;20030;-64
2021/10/26 05:51:04;;;;;;;18.42;9.88;;;;;;;6.21;94.70;98478.00;4970531;28;20624;-63
2021/10/26 05:53:29;;;;;;;19.50;11.13;;;;;;;6.29;92.55;98480.50;4971268;28;20109;-63
2021/10/26 05:55:54;;;;;;;23.67;12.02;;;;;;;6.20;96.01;98484.06;4971475;28;20180;-63
2021/10/26 05:58:20;;;;;;;22.67;12.18;;;;;;;6.01;93.52;98485.22;4972604;28;20113;-64
2021/10/26 06:00:45;;;;;;;24.70;11.35;;;;;;;6.13;94.14;98490.22;4967701;28;20187;-63
2021/10/26 06:03:11;;;;;;;20.35;11.63;;;;;;;5.98;95.32;98486.97;4971149;28;20030;-62
2021/10/26 06:05:36;;;;;;;21.15;11.63;;;;;;;6.18;95.90;98488.44;4971904;28;20039;-62
2021/10/26 06:08:02;;;;;;;21.48;11.40;;;;;;;6.14;94.74;98497.13;4972594;28;20118;-63
2021/10/26 06:10:28;;;;;;;21.05;11.38;;;;;;;6.26;94.76;98496.94;4970514;28;20045;-62
2021/10/26 06:12:58;;;;;;;18.70;10.38;;;;;;;6.29;96.62;98507.25;4972162;28;20097;-63
2021/10/26 06:15:23;;;;;;;23.90;12.10;;;;;;;6.28;95.92;98505.53;4972374;28;20042;-61
2021/10/26 06:17:49;;;;;;;22.40;11.48;;;;;;;6.33;95.64;98514.09;4970944;28;20037;-62
2021/10/26 06:20:14;;;;;;;22.88;11.63;;;;;;;6.59;96.02;98520.59;4971211;28;20814;-61
2021/10/26 06:22:39;;;;;;;21.88;12.18;;;;;;;6.55;94.33;98524.13;4972403;28;20033;-62
2021/10/26 06:25:05;;;;;;;19.73;11.57;;;;;;;6.51;94.88;98522.47;4967100;28;20678;-63
2021/10/26 06:27:31;;;;;;;22.10;11.88;;;;;;;6.78;94.95;98520.28;4971502;28;20575;-62
2021/10/26 06:29:59;;;;;;;19.05;11.82;;;;;;;6.95;93.07;98523.44;4973924;28;20081;-63
2021/10/26 06:32:25;;;;;;;19.95;11.80;;;;;;;6.91;93.40;98530.41;4987960;28;20045;-62
2021/10/26 06:34:50;;;;;;;19.70;12.13;;;;;;;7.02;94.54;98535.41;4975026;28;20031;-62
2021/10/26 06:37:15;;;;;;;18.98;12.25;;;;;;;7.02;93.08;98531.94;4975363;28;20038;-62
2021/10/26 06:39:41;;;;;;;21.45;12.23;;;;;;;7.11;93.35;98540.44;4973210;28;20166;-64
2021/10/26 06:42:06;;;;;;;19.60;11.68;;;;;;;7.08;94.28;98540.47;4974281;28;20042;-61
2021/10/26 06:44:32;;;;;;;19.27;11.73;;;;;;;7.29;92.52;98538.38;4975514;28;20110;-64
2021/10/26 06:46:57;;;;;;;22.60;12.60;;;;;;;7.08;94.17;98544.81;4973302;28;20114;-61
2021/10/26 06:49:23;;;;;;;16.42;9.85;;;;;;;7.38;94.15;98545.97;4974411;28;20636;-63
2021/10/26 06:51:48;;;;;;;22.20;12.85;;;;;;;7.29;93.09;98553.94;4972103;28;20122;-61
2021/10/26 06:54:14;;;;;;;19.95;11.07;;;;;;;7.57;94.44;98553.41;4971376;28;20034;-64
2021/10/26 06:56:39;;;;;;;20.77;12.85;;;;;;;7.19;96.12;98558.44;4976094;28;20148;-64
2021/10/26 06:59:04;;;;;;;23.33;13.13;;;;;;;7.08;96.57;98550.00;4970832;28;20133;-62
2021/10/26 07:01:30;;;;;;;22.73;12.90;;;;;;;6.97;95.99;98557.13;4973741;28;20051;-61
2021/10/26 07:03:55;;;;;;;27.13;12.82;;;;;;;6.98;96.08;98558.81;4973245;28;20026;-61
2021/10/26 07:06:20;;;;;;;25.67;12.50;;;;;;;7.63;96.17;98559.34;4972105;28;20046;-64
2021/10/26 07:08:46;;;;;;;24.88;11.98;;;;;;;7.71;95.06;98564.38;4972671;28;20606;-62
2021/10/26 07:11:11;;;;;;;23.38;12.80;;;;;;;8.03;92.36;98562.81;4970939;28;20114;-62
2021/10/26 07:13:39;;;;;;;20.85;12.93;;;;;;;7.95;94.25;98562.16;4973719;28;20066;-61
2021/10/26 07:16:06;;;;;;;18.50;11.18;;;;;;;8.38;94.11;98566.38;4974981;28;20697;-64
2021/10/26 07:18:31;;;;;;;22.88;12.43;;;;;;;8.65;92.38;98557.94;4973925;28;20035;-62
2021/10/26 07:20:57;;;;;;;19.20;11.98;;;;;;;8.78;91.43;98563.72;4971624;28;20524;-64
2021/10/26 07:23:23;;;;;;;20.92;11.65;;;;;;;8.49;91.44;98570.50;4972356;28;20033;-61
2021/10/26 07:25:49;;;;;;;21.13;12.38;;;;;;;8.76;94.00;98570.69;4974619;28;20130;-62
2021/10/26 07:28:14;;;;;;;20.15;12.52;;;;;;;8.65;94.40;98580.50;4974312;28;20513;-62
2021/10/26 07:30:44;;;;;;;19.58;12.57;;;;;;;8.65;92.38;98573.56;4973127;28;20057;-61
2021/10/26 07:33:15;;;;;;;21.10;12.82;;;;;;;9.03;94.90;98579.56;4972963;28;20035;-63
2021/10/26 07:35:43;;;;;;;22.15;12.35;;;;;;;8.92;94.96;98586.78;4973728;28;20054;-60
2021/10/26 07:38:11;;;;;;;22.75;12.75;;;;;;;9.24;91.63;98585.09;4971492;28;20069;-63
2021/10/26 07:40:37;;;;;;;24.20;13.07;;;;;;;9.07;91.59;98591.59;4973196;28;20046;-63
2021/10/26 07:43:02;;;;;;;23.55;12.63;;;;;;;9.42;93.43;98592.44;4971257;28;20026;-61
2021/10/26 07:45:28;;;;;;;21.67;12.65;;;;;;;9.51;90.30;98600.91;4971485;28;20050;-63
2021/10/26 07:47:53;;;;;;;19.73;12.70;;;;;;;9.45;91.37;98592.34;4972688;28;20019;-63
2021/10/26 07:50:19;;;;;;;22.45;12.85;;;;;;;9.48;91.20;98591.41;4970667;28;20081;-62
2021/10/26 07:52:45;;;;;;;20.58;12.38;;;;;;;9.74;91.08;98588.09;4970380;28;20109;-62
2021/10/26 07:55:10;;;;;;;20.45;12.35;;;;;;;9.68;92.46;98596.06;4970186;28;20027;-64
2021/10/26 07:57:36;;;;;;;23.70;13.05;;;;;;;9.81;92.46;98596.59;4970756;28;20045;-64
2021/10/26 08:00:04;;;;;;;22.13;12.52;;;;;;;9.93;91.00;98601.44;4970084;28;20576;-62
2021/10/26 08:02:29;;;;;;;21.50;13.05;;;;;;;10.14;90.00;98602.56;4972339;28;20047;-62
2021/10/26 08:04:56;;;;;;;20.17;11.80;;;;;;;10.20;93.40;98597.19;4971126;28;20027;-64
2021/10/26 08:07:23;;;;;;;18.25;11.93;;;;;;;10.37;91.12;98608.91;4973530;28;20390;-62
2021/10/26 08:09:50;;;;;;;19.10;12.02;;;;;;;10.51;89.17;98611.94;4975166;28;20035;-64
2021/10/26 08:12:17;;;;;;;19.48;12.10;;;;;;;10.54;89.93;98614.44;4971285;28;20035;-64
2021/10/26 08:14:43;;;;;;;19.88;12.15;;;;;;;10.58;89.30;98617.81;4973136;28;20035;-63
2021/10/26 08:17:09;;;;;;;19.20;12.25;;;;;;;10.49;89.37;98626.75;4971514;28;20046;-62
2021/10/26 08:19:36;;;;;;;20.02;12.35;;;;;;;10.35;90.57;98627.19;4973261;28;20038;-64
2021/10/26 08:22:04;;;;;;;20.38;12.27;;;;;;;10.36;90.97;98622.81;4971885;28;20035;-61
2021/10/26 08:24:31;;;;;;;20.15;13.07;;;;;;;10.61;89.68;98629.00;4971154;28;20055;-63
2021/10/26 08:26:58;;;;;;;18.17;11.60;;;;;;;10.74;89.30;98633.84;4971976;28;21006;-61
2021/10/26 08:37:39;;;;;;;24.35;12.82;;;;;;;11.06;87.69;98613.66;4972049;28;20041;-62
2021/10/26 08:40:05;;;;;;;23.00;12.45;;;;;;;11.65;86.67;98618.63;4971730;28;20145;-61
2021/10/26 08:42:31;;;;;;;19.05;12.40;;;;;;;11.45;88.25;98621.06;4970553;28;20077;-63
2021/10/26 08:44:57;;;;;;;19.95;12.27;;;;;;;11.28;90.25;98625.09;4970370;28;20092;-61
2021/10/26 08:47:23;;;;;;;19.95;12.27;;;;;;;11.23;90.22;98627.03;4971984;28;20057;-62
2021/10/26 08:49:51;;;;;;;19.02;11.68;;;;;;;11.99;87.28;98627.88;4970950;28;20121;-60
2021/10/26 08:52:19;;;;;;;19.33;11.93;;;;;;;11.53;88.92;98621.66;4972000;28;20031;-62
2021/10/26 08:54:46;;;;;;;23.63;12.93;;;;;;;12.11;86.84;98616.97;4971476;28;20215;-62
2021/10/26 08:57:11;;;;;;;23.33;13.13;;;;;;;12.38;86.89;98619.44;4970279;28;20037;-61
2021/10/26 08:59:36;;;;;;;23.10;12.30;;;;;;;12.63;84.95;98613.25;4969337;28;20026;-62
2021/10/26 09:02:03;;;;;;;19.73;11.75;;;;;;;12.49;84.86;98619.88;4971574;28;20038;-62
2021/10/26 09:04:31;;;;;;;15.75;10.15;;;;;;;12.90;84.55;98617.41;4971051;28;20165;-60
2021/10/26 09:07:03;;;;;;;20.42;11.93;;;;;;;12.82;86.00;98618.59;4970259;28;20117;-61
2021/10/26 09:09:30;;;;;;;16.60;11.35;;;;;;;12.48;85.78;98626.03;4969287;28;20057;-61
2021/10/26 09:17:47;;;;;;;18.77;11.70;;;;;;;13.10;83.70;98619.19;4969419;28;20058;-63
2021/10/26 09:20:21;;;;;;;18.13;11.23;;;;;;;13.05;82.71;98615.03;4970124;28;20114;-62
2021/10/26 09:22:50;;;;;;;15.45;8.63;;;;;;;13.34;81.82;98615.63;4968965;28;20026;-64
2021/10/26 09:25:17;;;;;;;13.73;8.50;;;;;;;14.08;82.33;98613.25;4968681;28;20130;-62
2021/10/26 09:27:44;;;;;;;16.23;9.75;;;;;;;14.31;79.32;98614.81;4972850;28;20784;-62
2021/10/26 09:30:12;;;;;;;15.82;9.82;;;;;;;13.96;79.90;98608.56;4971445;28;20069;-63
2021/10/26 09:32:47;;;;;;;15.05;10.40;;;;;;;13.49;80.00;98612.34;4971475;28;20018;-64
2021/10/26 09:35:16;;;;;;;15.23;9.38;;;;;;;14.43;78.83;98608.16;4970272;28;20124;-62
2021/10/26 09:37:57;;;;;;;12.30;8.40;;;;;;;14.23;76.86;98606.47;4971503;28;20648;-61
2021/10/26 09:40:37;;;;;;;15.80;9.75;;;;;;;14.39;74.82;98609.19;4969224;28;20841;-61
2021/10/26 09:43:06;;;;;;;15.95;10.13;;;;;;;15.69;70.76;98595.81;4971410;28;20085;-63
2021/10/26 09:45:32;;;;;;;13.40;8.43;;;;;;;15.28;73.04;98591.78;4968642;28;20089;-64
2021/10/26 09:48:09;;;;;;;14.55;9.13;;;;;;;14.80;73.90;98591.50;4972727;28;20054;-61
2021/10/26 09:50:36;;;;;;;13.90;9.02;;;;;;;16.34;67.78;98591.47;4968907;28;20100;-63
2021/10/26 09:53:13;;;;;;;12.00;7.13;;;;;;;16.61;66.59;98598.75;4970345;28;20583;-62
2021/10/26 09:55:42;;;;;;;12.63;8.00;;;;;;;16.13;66.50;98593.47;4970942;28;20038;-64
2021/10/26 09:58:15;;;;;;;11.60;7.93;;;;;;;16.62;64.41;98589.94;4971049;28;20062;-63
2021/10/26 10:00:45;;;;;;;11.20;7.10;;;;;;;17.33;65.41;98599.06;4971392;28;20046;-63
2021/10/26 10:03:16;;;;;;;11.35;6.50;;;;;;;16.33;66.15;98596.81;4970505;28;20461;-62
2021/10/26 10:05:59;;;;;;;11.03;7.07;;;;;;;16.14;66.43;98599.63;4972861;28;20153;-62
2021/10/26 10:08:28;;;;;;;12.15;7.00;;;;;;;15.94;66.20;98609.41;4972821;28;20120;-64
2021/10/26 10:11:14;;;;;;;8.23;4.97;;;;;;;16.21;66.22;98593.09;4972993;28;20157;-63
2021/10/26 10:13:42;;;;;;;10.88;5.93;;;;;;;16.33;65.98;98600.28;4973213;28;20026;-63
2021/10/26 10:16:12;;;;;;;11.88;6.88;;;;;;;16.61;64.94;98596.13;4971856;28;20105;-62
2021/10/26 10:18:41;;;;;;;9.15;6.50;;;;;;;16.71;64.87;98602.59;4972606;28;20045;-63
2021/10/26 10:21:09;;;;;;;10.77;6.85;;;;;;;17.81;61.08;98605.00;4972641;28;20104;-64
2021/10/26 10:23:35;;;;;;;10.43;6.80;;;;;;;17.53;61.44;98603.16;4975020;28;20028;-63
2021/10/26 10:26:01;;;;;;;12.25;6.72;;;;;;;18.72;60.03;98603.75;4972715;28;20049;-63
2021/10/26 10:28:30;;;;;;;9.75;6.35;;;;;;;17.22;62.20;98596.22;4975417;28;20522;-64
2021/10/26 10:31:02;;;;;;;10.05;5.82;;;;;;;17.36;62.73;98608.59;4972009;28;20031;-63
2021/10/26 10:33:28;;;;;;;9.95;6.28;;;;;;;16.47;64.82;98603.94;4973736;28;20120;-61
2021/10/26 10:35:57;;;;;;;9.20;6.40;;;;;;;16.36;64.18;98613.28;4971482;28;20035;-63
2021/10/26 10:38:26;;;;;;;15.32;7.32;;;;;;;16.22;66.23;98613.19;4974636;28;20065;-64
2021/10/26 10:41:26;;;;;;;11.23;6.63;;;;;;;16.25;65.31;98610.41;4971929;28;20088;-65
2021/10/26 10:43:52;;;;;;;15.60;8.40;;;;;;;15.81;67.65;98613.63;4971354;28;20015;-64
2021/10/26 10:47:00;;;;;;;14.52;7.60;;;;;;;15.89;67.86;98608.81;4973178;28;20089;-64
2021/10/26 10:49:43;;;;;;;13.35;7.20;;;;;;;16.31;66.62;98604.78;4974847;28;20030;-64
2021/10/26 10:52:15;;;;;;;9.95;6.85;;;;;;;16.43;65.99;98607.69;4972257;28;20031;-64
2021/10/26 10:54:51;;;;;;;;;;;;;;;16.16;66.25;98603.84;4973204;28;20036;-63
2021/10/26 10:57:23;;;;;;;13.68;7.50;;;;;;;16.10;67.02;98606.81;4974924;28;19917;-61
2021/10/26 10:59:51;;;;;;;13.93;8.00;;;;;;;16.12;66.45;98604.97;4974624;28;20056;-61
2021/10/26 11:02:31;;;;;;;13.38;7.90;;;;;;;15.98;66.68;98599.59;4971380;28;20779;-62
2021/10/26 11:04:57;;;;;;;10.35;6.50;;;;;;;15.92;66.32;98602.56;4972333;28;20033;-64
2021/10/26 11:07:41;;;;;;;12.95;7.63;;;;;;;16.43;65.99;98595.38;4973159;28;20081;-61
2021/10/26 11:10:08;;;;;;;19.73;7.78;;;;;;;16.41;67.65;98593.75;4972037;28;20023;-64
2021/10/26 11:12:36;;;;;;;13.05;7.68;;;;;;;16.27;66.23;98589.28;4973476;28;20124;-62
2021/10/26 11:15:15;;;;;;;11.10;7.18;;;;;;;16.45;65.16;98595.28;4971801;28;20026;-64
2021/10/26 11:17:43;;;;;;;12.70;6.70;;;;;;;16.33;65.13;98586.28;4974525;28;20174;-62
2021/10/26 11:20:37;;;;;;;9.43;6.50;;;;;;;17.51;65.38;98587.41;4971977;28;20033;-63
2021/10/26 11:23:05;;;;;;;15.35;6.65;;;;;;;16.57;65.34;98589.34;4973649;28;20702;-63
2021/10/26 11:25:40;;;;;;;20.15;6.55;;;;;;;16.42;65.47;98596.31;4972263;28;20533;-63
2021/10/26 11:28:12;;;;;;;11.13;6.53;;;;;;;16.38;66.19;98590.38;4973070;28;20026;-62
2021/10/26 11:30:44;;;;;;;10.43;5.72;;;;;;;15.83;66.25;98593.34;4971478;28;20035;-62
2021/10/26 11:33:12;;;;;;;9.18;5.57;;;;;;;16.45;64.93;98590.00;4970997;28;20027;-62
2021/10/26 11:35:50;;;;;;;16.50;5.00;;;;;;;16.43;65.92;98586.63;4973817;28;20843;-64
2021/10/26 11:38:26;;;;;;;17.38;5.30;;;;;;;16.24;66.95;98592.91;4970500;28;20500;-63
2021/10/26 11:41:07;;;;;;;20.88;5.18;;;;;;;15.62;66.47;98584.75;4973090;28;20035;-62